createdAt,value
2022-08-22T00:00:11.549Z,22.58
2022-08-22T00:02:39.912Z,22.54
2022-08-22T00:02:41.977Z,24.56
2022-08-22T00:02:45.270Z,24.44
2022-08-22T00:02:56.593Z,24.65
2022-08-22T00:02:57.619Z,23.10
2022-08-22T00:03:00.886Z,23.79
2022-08-22T00:05:06.373Z,22.53
2022-08-22T00:07:32.766Z,22.62
2022-08-22T00:09:59.135Z,22.68
2022-08-22T00:12:25.557Z,22.67
2022-08-22T00:14:51.978Z,22.79
2022-08-22T00:17:18.379Z,22.61
2022-08-22T00:19:44.775Z,22.69
2022-08-22T00:22:11.166Z,22.80
2022-08-22T00:24:37.602Z,22.80
2022-08-22T00:27:03.994Z,22.48
2022-08-22T00:29:30.393Z,22.48
2022-08-22T00:31:59.268Z,22.75
2022-08-22T00:34:26.498Z,22.89
2022-08-22T00:36:52.963Z,22.84
2022-08-22T00:39:19.378Z,22.94
2022-08-22T00:41:45.875Z,22.94
2022-08-22T00:44:12.288Z,22.95
2022-08-22T00:46:38.699Z,22.95
2022-08-22T00:49:05.141Z,22.92
2022-08-22T00:51:31.550Z,22.88
2022-08-22T00:53:57.959Z,22.85
2022-08-22T00:56:24.351Z,22.78
2022-08-22T00:58:50.745Z,22.84
2022-08-22T01:01:17.194Z,22.91
2022-08-22T01:03:45.954Z,22.95
2022-08-22T01:06:12.344Z,22.96
2022-08-22T01:08:38.787Z,22.85
2022-08-22T01:11:05.206Z,22.89
2022-08-22T01:13:31.611Z,22.89
2022-08-22T01:15:58.034Z,22.96
2022-08-22T01:18:24.506Z,22.85
2022-08-22T01:20:50.899Z,22.88
2022-08-22T01:23:17.309Z,22.95
2022-08-22T01:25:43.697Z,22.93
2022-08-22T01:28:10.111Z,22.83
2022-08-22T01:30:37.497Z,22.77
2022-08-22T01:33:03.891Z,22.86
2022-08-22T01:35:30.304Z,22.84
2022-08-22T01:37:56.916Z,22.82
2022-08-22T01:40:23.812Z,22.72
2022-08-22T01:42:50.259Z,22.71
2022-08-22T01:45:16.649Z,22.66
2022-08-22T01:47:43.069Z,22.71
2022-08-22T01:50:09.474Z,22.70
2022-08-22T01:52:35.886Z,22.68
2022-08-22T01:55:02.312Z,22.66
2022-08-22T01:57:28.722Z,22.71
2022-08-22T01:59:55.129Z,22.66
2022-08-22T02:02:23.928Z,22.62
2022-08-22T02:04:50.336Z,22.62
2022-08-22T02:07:17.843Z,22.62
2022-08-22T02:09:44.339Z,22.56
2022-08-22T02:12:21.384Z,22.58
2022-08-22T02:14:48.490Z,22.58
2022-08-22T02:17:14.933Z,22.58
2022-08-22T02:19:41.326Z,22.57
2022-08-22T02:22:07.716Z,22.60
2022-08-22T02:24:34.127Z,22.55
2022-08-22T02:27:00.531Z,22.54
2022-08-22T02:29:26.924Z,22.56
2022-08-22T02:31:53.329Z,22.59
2022-08-22T02:34:21.440Z,22.59
2022-08-22T02:36:47.857Z,22.61
2022-08-22T02:39:14.279Z,22.64
2022-08-22T02:41:40.667Z,22.64
2022-08-22T02:44:07.070Z,22.67
2022-08-22T02:46:33.723Z,22.58
2022-08-22T02:49:00.121Z,22.55
2022-08-22T02:51:26.511Z,22.49
2022-08-22T02:53:52.918Z,22.45
2022-08-22T02:56:19.367Z,22.42
2022-08-22T02:58:45.808Z,22.37
2022-08-22T03:01:12.268Z,22.33
2022-08-22T03:03:41.838Z,22.34
2022-08-22T03:06:08.242Z,22.30
2022-08-22T03:08:34.652Z,22.26
2022-08-22T03:11:02.028Z,22.25
2022-08-22T03:13:28.433Z,22.20
2022-08-22T03:15:54.864Z,22.16
2022-08-22T03:18:21.292Z,22.16
2022-08-22T03:20:47.893Z,22.14
2022-08-22T03:23:14.310Z,22.16
2022-08-22T03:25:40.737Z,22.16
2022-08-22T03:28:07.125Z,22.32
2022-08-22T03:30:33.614Z,22.38
2022-08-22T03:32:59.992Z,22.35
2022-08-22T03:35:26.377Z,22.26
2022-08-22T03:37:52.860Z,22.21
2022-08-22T03:40:19.355Z,22.27
2022-08-22T03:42:45.805Z,22.25
2022-08-22T03:45:12.220Z,22.29
2022-08-22T03:47:38.621Z,22.29
2022-08-22T03:50:05.009Z,22.13
2022-08-22T03:52:31.503Z,21.97
2022-08-22T03:54:57.883Z,21.87
2022-08-22T03:57:24.296Z,21.86
2022-08-22T03:59:50.703Z,21.81
2022-08-22T04:02:41.998Z,21.82
2022-08-22T04:05:03.754Z,21.82
2022-08-22T04:07:32.382Z,21.83
2022-08-22T04:09:59.865Z,21.78
2022-08-22T04:12:26.366Z,21.72
2022-08-22T04:14:52.768Z,21.69
2022-08-22T04:17:19.174Z,21.75
2022-08-22T04:19:45.570Z,21.75
2022-08-22T04:22:11.966Z,21.72
2022-08-22T04:24:38.382Z,21.69
2022-08-22T04:27:04.773Z,21.71
2022-08-22T04:29:31.178Z,21.68
2022-08-22T04:31:57.595Z,21.66
2022-08-22T04:34:23.970Z,21.64
2022-08-22T04:36:50.384Z,21.58
2022-08-22T04:39:16.786Z,21.58
2022-08-22T04:41:43.199Z,21.66
2022-08-22T04:44:09.589Z,21.71
2022-08-22T04:46:37.459Z,21.69
2022-08-22T04:49:03.899Z,21.66
2022-08-22T04:51:30.313Z,21.87
2022-08-22T04:53:58.555Z,21.76
2022-08-22T04:56:24.942Z,21.76
2022-08-22T04:58:51.348Z,21.79
2022-08-22T05:01:17.885Z,21.87
2022-08-22T05:03:45.052Z,21.74
2022-08-22T05:06:11.498Z,21.72
2022-08-22T05:08:37.902Z,21.70
2022-08-22T05:11:06.014Z,21.67
2022-08-22T05:13:32.442Z,21.66
2022-08-22T05:15:58.839Z,21.69
2022-08-22T05:18:29.480Z,21.88
2022-08-22T05:20:56.350Z,21.88
2022-08-22T05:23:22.772Z,21.94
2022-08-22T05:25:49.172Z,22.00
2022-08-22T05:28:16.121Z,22.05
2022-08-22T05:30:42.542Z,22.09
2022-08-22T05:33:08.982Z,22.27
2022-08-22T05:35:35.400Z,22.27
2022-08-22T05:38:01.784Z,22.25
2022-08-22T05:40:28.168Z,22.17
2022-08-22T05:42:55.582Z,22.14
2022-08-22T05:45:21.996Z,22.16
2022-08-22T05:47:48.437Z,22.14
2022-08-22T05:50:14.922Z,21.61
2022-08-22T05:52:41.292Z,21.62
2022-08-22T05:55:07.670Z,21.83
2022-08-22T05:57:34.138Z,21.82
2022-08-22T06:00:00.537Z,22.03
2022-08-22T06:02:26.935Z,22.18
2022-08-22T06:04:53.552Z,22.30
2022-08-22T06:07:20.718Z,22.26
2022-08-22T06:09:49.322Z,22.30
2022-08-22T06:12:21.951Z,22.23
2022-08-22T06:14:49.326Z,22.28
2022-08-22T06:17:15.704Z,22.27
2022-08-22T06:19:42.116Z,22.33
2022-08-22T06:22:08.526Z,22.19
2022-08-22T06:24:34.921Z,22.13
2022-08-22T06:27:01.332Z,22.04
2022-08-22T06:29:27.728Z,22.04
2022-08-22T06:31:54.333Z,21.99
2022-08-22T06:34:20.855Z,22.11
2022-08-22T06:36:47.309Z,22.28
2022-08-22T06:39:15.101Z,21.86
2022-08-22T06:41:41.577Z,21.57
2022-08-22T06:44:08.067Z,21.54
2022-08-22T06:46:34.459Z,21.41
2022-08-22T06:49:00.870Z,21.18
2022-08-22T06:51:27.278Z,21.03
2022-08-22T06:53:53.677Z,20.90
2022-08-22T06:56:20.065Z,20.54
2022-08-22T06:58:46.511Z,21.03
2022-08-22T07:01:14.005Z,20.79
2022-08-22T07:03:40.400Z,20.74
2022-08-22T07:06:06.815Z,20.89
2022-08-22T07:08:38.503Z,21.39
2022-08-22T07:11:05.493Z,21.54
2022-08-22T07:13:32.471Z,21.85
2022-08-22T07:15:58.958Z,21.61
2022-08-22T07:18:25.340Z,21.48
2022-08-22T07:20:55.000Z,21.56
2022-08-22T07:23:21.656Z,21.82
2022-08-22T07:25:48.126Z,21.45
2022-08-22T07:28:15.913Z,21.63
2022-08-22T07:30:42.703Z,21.51
2022-08-22T07:33:26.047Z,21.71
2022-08-22T07:35:53.875Z,21.81
2022-08-22T07:38:20.312Z,21.90
2022-08-22T07:40:46.826Z,22.05
2022-08-22T07:43:13.297Z,22.30
2022-08-22T07:45:39.737Z,22.54
2022-08-22T07:48:06.148Z,22.40
2022-08-22T07:50:32.543Z,22.49
2022-08-22T07:52:58.940Z,22.84
2022-08-22T07:55:25.342Z,22.83
2022-08-22T07:57:51.726Z,22.76
2022-08-22T08:00:18.122Z,22.90
2022-08-22T08:02:44.550Z,22.90
2022-08-22T08:05:10.945Z,22.89
2022-08-22T08:07:37.336Z,22.94
2022-08-22T08:10:03.773Z,22.94
2022-08-22T08:12:30.199Z,23.21
2022-08-22T08:14:56.605Z,23.22
2022-08-22T08:17:23.008Z,23.06
2022-08-22T08:19:49.406Z,23.42
2022-08-22T08:22:15.825Z,23.60
2022-08-22T08:24:44.800Z,23.72
2022-08-22T08:27:13.172Z,23.79
2022-08-22T08:29:39.565Z,24.12
2022-08-22T08:32:05.955Z,24.32
2022-08-22T08:34:32.417Z,24.41
2022-08-22T08:37:01.183Z,24.43
2022-08-22T08:39:28.584Z,24.28
2022-08-22T08:42:01.864Z,24.16
2022-08-22T08:44:28.292Z,24.07
2022-08-22T08:46:55.894Z,24.00
2022-08-22T08:49:23.946Z,24.17
2022-08-22T08:51:50.690Z,24.09
2022-08-22T08:54:17.080Z,23.73
2022-08-22T08:59:30.184Z,23.47
2022-08-22T09:01:57.078Z,23.51
2022-08-22T09:04:24.276Z,23.23
2022-08-22T09:06:53.841Z,23.18
2022-08-22T09:09:23.220Z,23.02
2022-08-22T09:11:49.618Z,22.86
2022-08-22T09:14:16.048Z,23.04
2022-08-22T09:16:45.029Z,23.07
2022-08-22T09:19:12.709Z,23.13
2022-08-22T09:21:39.083Z,23.18
2022-08-22T09:24:05.477Z,22.90
2022-08-22T09:26:31.892Z,23.06
2022-08-22T09:29:00.243Z,23.52
2022-08-22T09:31:32.981Z,23.78
2022-08-22T09:34:13.048Z,23.83
2022-08-22T09:36:42.883Z,23.25
2022-08-22T09:39:09.370Z,23.27
2022-08-22T09:40:15.240Z,23.55
2022-08-22T09:41:35.790Z,23.29
2022-08-22T09:44:02.168Z,23.16
2022-08-22T09:46:32.279Z,23.06
2022-08-22T09:49:05.435Z,23.25
2022-08-22T09:51:33.485Z,23.01
2022-08-22T09:53:59.940Z,23.43
2022-08-22T09:56:29.006Z,23.38
2022-08-22T09:58:56.919Z,23.60
2022-08-22T10:01:32.871Z,23.73
2022-08-22T10:04:00.786Z,23.47
2022-08-22T10:06:27.169Z,23.62
2022-08-22T10:08:53.592Z,23.54
2022-08-22T10:11:19.980Z,23.99
2022-08-22T10:13:46.387Z,24.13
2022-08-22T10:16:12.948Z,24.01
2022-08-22T10:18:42.150Z,23.69
2022-08-22T10:21:19.032Z,23.68
2022-08-22T10:23:47.189Z,23.57
2022-08-22T10:26:22.839Z,23.76
2022-08-22T10:28:52.159Z,23.84
2022-08-22T10:31:18.750Z,24.57
2022-08-22T10:33:46.519Z,25.10
2022-08-22T10:36:13.620Z,24.92
2022-08-22T10:38:46.136Z,24.99
2022-08-22T10:41:13.194Z,25.34
2022-08-22T10:43:41.985Z,25.31
2022-08-22T10:46:12.699Z,25.60
2022-08-22T10:48:40.287Z,26.08
2022-08-22T10:51:08.833Z,26.33
2022-08-22T10:53:36.319Z,26.35
2022-08-22T10:56:02.709Z,26.44
2022-08-22T10:58:29.245Z,26.40
2022-08-22T11:00:55.746Z,26.21
2022-08-22T11:03:23.453Z,26.42
2022-08-22T11:05:52.443Z,26.55
2022-08-22T11:08:19.023Z,27.15
2022-08-22T11:10:47.291Z,27.46
2022-08-22T11:13:13.825Z,27.23
2022-08-22T11:15:40.269Z,27.61
2022-08-22T11:18:06.951Z,27.53
2022-08-22T11:20:39.349Z,27.78
2022-08-22T11:23:07.294Z,27.90
2022-08-22T11:25:38.730Z,27.92
2022-08-22T11:28:05.615Z,27.93
2022-08-22T11:30:32.045Z,28.23
2022-08-22T11:33:04.709Z,28.32
2022-08-22T11:35:33.959Z,28.49
2022-08-22T11:38:03.098Z,28.45
2022-08-22T11:40:29.722Z,28.54
2022-08-22T11:42:56.178Z,28.83
2022-08-22T11:45:25.492Z,28.85
2022-08-22T11:47:53.738Z,28.97
2022-08-22T11:50:20.360Z,29.01
2022-08-22T11:52:51.925Z,29.01
2022-08-22T11:55:18.493Z,29.21
2022-08-22T11:57:45.090Z,29.30
2022-08-22T12:00:11.571Z,29.39
2022-08-22T12:02:38.191Z,29.35
2022-08-22T12:05:04.597Z,29.41
2022-08-22T12:07:32.124Z,29.26
2022-08-22T12:09:59.312Z,29.42
2022-08-22T12:12:25.731Z,29.51
2022-08-22T12:14:52.123Z,29.63
2022-08-22T12:17:28.547Z,29.83
2022-08-22T12:20:16.887Z,29.69
2022-08-22T12:22:45.868Z,30.00
2022-08-22T12:25:16.504Z,30.13
2022-08-22T12:27:48.270Z,30.09
2022-08-22T12:30:21.541Z,30.18
2022-08-22T12:32:48.970Z,30.30
2022-08-22T12:35:15.620Z,30.45
2022-08-22T12:37:52.235Z,30.47
2022-08-22T12:40:20.594Z,30.40
2022-08-22T12:42:53.495Z,30.42
2022-08-22T12:45:20.026Z,30.49
2022-08-22T12:47:49.628Z,30.44
2022-08-22T12:50:16.909Z,30.59
2022-08-22T12:52:44.290Z,30.69
2022-08-22T12:55:10.811Z,30.81
2022-08-22T12:57:37.533Z,31.12
2022-08-22T13:00:03.938Z,31.07
2022-08-22T13:02:30.649Z,31.28
2022-08-22T13:04:57.059Z,31.18
2022-08-22T13:07:23.456Z,31.44
2022-08-22T13:09:49.843Z,31.44
2022-08-22T13:12:20.083Z,31.33
2022-08-22T13:14:47.524Z,31.54
2022-08-22T13:17:25.003Z,31.53
2022-08-22T13:19:52.064Z,31.22
2022-08-22T13:22:18.486Z,31.44
2022-08-22T13:24:51.716Z,31.44
2022-08-22T13:27:20.333Z,31.53
2022-08-22T13:29:46.951Z,31.49
2022-08-22T13:32:15.642Z,31.18
2022-08-22T13:34:43.725Z,31.14
2022-08-22T13:37:10.284Z,31.12
2022-08-22T13:39:37.837Z,31.05
2022-08-22T13:42:04.327Z,31.26
2022-08-22T13:44:40.851Z,31.44
2022-08-22T13:47:14.320Z,31.46
2022-08-22T13:49:41.242Z,31.39
2022-08-22T13:52:14.427Z,31.26
2022-08-22T13:54:54.014Z,31.44
2022-08-22T13:57:20.398Z,31.67
2022-08-22T13:59:53.599Z,31.48
2022-08-22T14:02:21.285Z,31.43
2022-08-22T14:04:48.745Z,31.36
2022-08-22T14:07:15.119Z,31.56
2022-08-22T14:09:41.542Z,31.61
2022-08-22T14:12:07.928Z,31.44
2022-08-22T14:14:38.262Z,31.44
2022-08-22T14:17:04.664Z,31.42
2022-08-22T14:19:31.314Z,31.23
2022-08-22T14:22:04.740Z,30.95
2022-08-22T14:24:31.123Z,31.00
2022-08-22T14:26:57.941Z,31.24
2022-08-22T14:29:24.487Z,31.54
2022-08-22T14:31:50.945Z,31.37
2022-08-22T14:34:19.930Z,31.23
2022-08-22T14:36:49.413Z,31.51
2022-08-22T14:39:15.803Z,31.37
2022-08-22T14:41:56.010Z,31.44
2022-08-22T14:44:23.647Z,31.17
2022-08-22T14:46:51.209Z,31.13
2022-08-22T14:49:17.638Z,31.24
2022-08-22T14:51:44.284Z,31.30
2022-08-22T14:54:10.711Z,31.49
2022-08-22T14:56:40.591Z,31.43
2022-08-22T14:59:10.152Z,31.39
2022-08-22T15:01:41.249Z,31.10
2022-08-22T15:04:08.046Z,31.37
2022-08-22T15:06:34.449Z,31.35
2022-08-22T15:09:02.056Z,31.69
2022-08-22T15:11:34.497Z,31.37
2022-08-22T15:14:02.529Z,31.46
2022-08-22T15:16:31.256Z,31.42
2022-08-22T15:18:58.215Z,31.57
2022-08-22T15:21:24.814Z,31.67
2022-08-22T15:23:51.257Z,31.90
2022-08-22T15:26:17.699Z,32.04
2022-08-22T15:28:52.538Z,31.94
2022-08-22T15:31:19.649Z,32.19
2022-08-22T15:33:46.110Z,32.36
2022-08-22T15:36:12.687Z,32.58
2022-08-22T15:38:42.401Z,32.76
2022-08-22T15:41:14.483Z,32.93
2022-08-22T15:43:41.534Z,33.19
2022-08-22T15:48:52.463Z,33.86
2022-08-22T15:51:18.918Z,33.99
2022-08-22T15:53:48.157Z,34.13
2022-08-22T15:56:17.416Z,34.55
2022-08-22T15:58:48.768Z,34.88
2022-08-22T16:01:19.937Z,34.66
2022-08-22T16:03:47.065Z,34.76
2022-08-22T16:06:13.478Z,34.73
2022-08-22T16:08:39.859Z,35.00
2022-08-22T16:11:06.262Z,35.34
2022-08-22T16:13:32.639Z,35.57
2022-08-22T16:15:59.040Z,35.50
2022-08-22T16:18:25.443Z,35.44
2022-08-22T16:20:51.895Z,35.16
2022-08-22T16:23:18.302Z,34.86
2022-08-22T16:25:44.686Z,34.82
2022-08-22T16:28:11.062Z,34.60
2022-08-22T16:30:37.498Z,34.24
2022-08-22T16:33:04.980Z,34.04
2022-08-22T16:35:31.374Z,33.85
2022-08-22T16:37:57.823Z,33.61
2022-08-22T16:40:24.376Z,33.29
2022-08-22T16:42:50.790Z,32.79
2022-08-22T16:45:17.170Z,32.58
2022-08-22T16:47:43.561Z,32.37
2022-08-22T16:50:19.194Z,32.16
2022-08-22T16:52:48.709Z,32.05
2022-08-22T16:55:15.087Z,32.02
2022-08-22T16:57:54.406Z,31.80
2022-08-22T17:00:25.950Z,31.71
2022-08-22T17:02:52.392Z,31.57
2022-08-22T17:05:18.777Z,31.43
2022-08-22T17:07:45.150Z,31.34
2022-08-22T17:10:12.529Z,31.49
2022-08-22T17:12:39.083Z,31.39
2022-08-22T17:15:05.550Z,31.19
2022-08-22T17:17:31.942Z,31.29
2022-08-22T17:19:58.327Z,31.17
2022-08-22T17:22:28.477Z,31.06
2022-08-22T17:24:55.485Z,30.83
2022-08-22T17:27:21.883Z,30.74
2022-08-22T17:29:48.260Z,30.56
2022-08-22T17:32:14.662Z,30.38
2022-08-22T17:34:41.064Z,30.19
2022-08-22T17:37:07.468Z,30.16
2022-08-22T17:39:33.846Z,30.07
2022-08-22T17:42:00.223Z,29.94
2022-08-22T17:44:26.629Z,29.81
2022-08-22T17:46:53.005Z,29.65
2022-08-22T17:49:19.401Z,29.47
2022-08-22T17:51:45.771Z,29.32
2022-08-22T17:54:12.150Z,29.24
2022-08-22T17:56:38.526Z,28.79
2022-08-22T17:59:04.922Z,28.73
2022-08-22T18:01:31.343Z,28.61
2022-08-22T18:03:57.789Z,28.47
2022-08-22T18:06:24.173Z,28.30
2022-08-22T18:11:38.973Z,28.21
2022-08-22T18:14:06.735Z,27.97
2022-08-22T18:16:33.148Z,27.99
2022-08-22T18:18:59.578Z,27.91
2022-08-22T18:21:25.954Z,27.85
2022-08-22T18:23:52.330Z,27.79
2022-08-22T18:26:18.744Z,27.68
2022-08-22T18:28:45.194Z,27.56
2022-08-22T18:31:11.646Z,27.58
2022-08-22T18:33:38.059Z,27.44
2022-08-22T18:36:04.786Z,27.36
2022-08-22T18:38:31.279Z,27.34
2022-08-22T18:40:57.689Z,27.31
2022-08-22T18:43:24.202Z,27.24
2022-08-22T18:45:50.660Z,27.22
2022-08-22T18:48:17.045Z,27.01
2022-08-22T18:50:43.425Z,27.06
2022-08-22T18:53:09.851Z,27.09
2022-08-22T18:55:38.082Z,27.01
2022-08-22T18:58:04.472Z,27.00
2022-08-22T19:00:30.859Z,26.95
2022-08-22T19:02:57.329Z,26.93
2022-08-22T19:05:23.766Z,26.90
2022-08-22T19:07:50.157Z,26.86
2022-08-22T19:10:16.609Z,26.80
2022-08-22T19:12:43.010Z,26.77
2022-08-22T19:15:09.421Z,26.71
2022-08-22T19:17:35.810Z,26.64
2022-08-22T19:20:02.222Z,26.61
2022-08-22T19:22:28.643Z,26.57
2022-08-22T19:24:55.051Z,26.52
2022-08-22T19:27:21.461Z,26.57
2022-08-22T19:29:47.842Z,26.59
2022-08-22T19:32:14.265Z,26.58
2022-08-22T19:34:40.652Z,26.52
2022-08-22T19:37:07.045Z,26.51
2022-08-22T19:39:36.001Z,26.51
2022-08-22T19:42:02.430Z,26.51
2022-08-22T19:44:28.811Z,26.52
2022-08-22T19:46:55.225Z,26.52
2022-08-22T19:49:21.708Z,26.54
2022-08-22T19:51:48.111Z,26.54
2022-08-22T19:54:16.670Z,26.50
2022-08-22T19:56:43.369Z,26.57
2022-08-22T19:59:09.798Z,26.54
2022-08-22T20:01:36.267Z,26.47
2022-08-22T20:04:02.696Z,26.35
2022-08-22T20:06:43.569Z,26.42
2022-08-22T20:09:10.638Z,26.29
2022-08-22T20:11:37.016Z,26.18
2022-08-22T20:14:03.404Z,26.21
2022-08-22T20:16:29.798Z,26.14
2022-08-22T20:19:06.627Z,26.18
2022-08-22T20:21:38.697Z,26.21
2022-08-22T20:24:05.628Z,26.14
2022-08-22T20:26:32.051Z,26.08
2022-08-22T20:28:58.422Z,26.09
2022-08-22T20:31:25.923Z,26.05
2022-08-22T20:33:52.303Z,26.07
2022-08-22T20:36:28.535Z,25.97
2022-08-22T20:38:56.152Z,25.97
2022-08-22T20:41:22.751Z,25.97
2022-08-22T20:43:49.210Z,25.98
2022-08-22T20:46:15.831Z,25.91
2022-08-22T20:48:42.212Z,25.81
2022-08-22T20:51:08.591Z,25.83
2022-08-22T20:53:34.991Z,25.86
2022-08-22T20:56:01.410Z,25.84
2022-08-22T20:58:27.810Z,25.83
2022-08-22T21:00:56.093Z,25.80
2022-08-22T21:03:22.594Z,25.75
2022-08-22T21:05:48.978Z,25.63
2022-08-22T21:08:15.375Z,25.67
2022-08-22T21:10:41.760Z,25.65
2022-08-22T21:13:08.157Z,25.69
2022-08-22T21:15:34.543Z,25.79
2022-08-22T21:18:01.088Z,25.78
2022-08-22T21:20:27.663Z,25.71
2022-08-22T21:22:54.044Z,25.71
2022-08-22T21:25:20.449Z,25.61
2022-08-22T21:27:46.827Z,25.63
2022-08-22T21:30:13.256Z,25.66
2022-08-22T21:32:39.663Z,25.63
2022-08-22T21:35:06.071Z,25.63
2022-08-22T21:37:32.471Z,25.63
2022-08-22T21:39:58.925Z,25.68
2022-08-22T21:42:25.320Z,25.64
2022-08-22T21:44:51.735Z,25.45
2022-08-22T21:47:19.179Z,25.45
2022-08-22T21:49:57.751Z,25.47
2022-08-22T21:52:24.145Z,25.56
2022-08-22T21:54:50.557Z,25.62
2022-08-22T21:57:16.958Z,25.60
2022-08-22T21:59:51.992Z,25.45
2022-08-22T22:02:25.578Z,25.37
2022-08-22T22:04:53.825Z,25.36
2022-08-22T22:07:20.240Z,25.27
2022-08-22T22:09:47.205Z,25.28
2022-08-22T22:12:21.413Z,25.16
2022-08-22T22:14:47.810Z,25.14
2022-08-22T22:17:14.196Z,25.13
2022-08-22T22:19:40.584Z,25.09
2022-08-22T22:22:08.316Z,25.16
2022-08-22T22:24:34.704Z,25.03
2022-08-22T22:27:01.122Z,24.97
2022-08-22T22:29:27.525Z,24.95
2022-08-22T22:31:53.921Z,25.04
2022-08-22T22:34:20.331Z,24.98
2022-08-22T22:36:46.736Z,24.91
2022-08-22T22:39:13.111Z,24.90
2022-08-22T22:41:39.526Z,24.89
2022-08-22T22:44:05.909Z,24.79
2022-08-22T22:46:32.313Z,24.82
2022-08-22T22:48:58.701Z,24.81
2022-08-22T22:51:25.087Z,24.80
2022-08-22T22:53:51.496Z,24.81
2022-08-22T22:56:17.984Z,24.56
2022-08-22T22:58:50.009Z,24.59
2022-08-22T23:01:16.482Z,24.65
2022-08-22T23:03:42.931Z,24.60
2022-08-22T23:06:09.354Z,24.54
2022-08-22T23:08:35.768Z,24.58
2022-08-22T23:11:02.169Z,24.50
2022-08-22T23:13:28.538Z,24.47
2022-08-22T23:15:54.931Z,24.56
2022-08-22T23:18:21.315Z,24.48
2022-08-22T23:20:56.811Z,24.59
2022-08-22T23:23:23.207Z,24.61
2022-08-22T23:25:49.601Z,24.54
2022-08-22T23:28:16.032Z,24.54
2022-08-22T23:30:42.460Z,24.42
2022-08-22T23:33:08.859Z,24.42
2022-08-22T23:35:35.284Z,24.40
2022-08-22T23:38:01.819Z,24.43
2022-08-22T23:40:28.333Z,24.38
2022-08-22T23:42:54.798Z,24.32
2022-08-22T23:45:22.602Z,24.20
2022-08-22T23:47:48.995Z,24.13
2022-08-22T23:50:15.412Z,24.12
2022-08-22T23:52:41.805Z,24.02
2022-08-22T23:55:08.171Z,23.90
2022-08-22T23:57:34.547Z,23.83
